sensor_id;sensor_type;location;lat;lon;timestamp;P1;durP1;ratioP1;P2;durP2;ratioP2
66751;SDS011;53663;42.676;23.238;2024-03-02T00:00:23;28.88;;;15.63;;
66751;SDS011;53663;42.676;23.238;2024-03-02T00:02:50;27.15;;;14.30;;
66751;SDS011;53663;42.676;23.238;2024-03-02T00:05:17;25.45;;;13.80;;
66751;SDS011;53663;42.676;23.238;2024-03-02T00:07:45;31.65;;;15.25;;
66751;SDS011;53663;42.676;23.238;2024-03-02T00:10:16;24.30;;;15.23;;
66751;SDS011;53663;42.676;23.238;2024-03-02T00:18:05;27.67;;;14.63;;
66751;SDS011;53663;42.676;23.238;2024-03-02T00:20:30;23.08;;;12.65;;
66751;SDS011;53663;42.676;23.238;2024-03-02T00:23:02;27.45;;;14.27;;
66751;SDS011;53663;42.676;23.238;2024-03-02T00:31:01;26.00;;;13.55;;
66751;SDS011;53663;42.676;23.238;2024-03-02T00:33:35;25.20;;;14.02;;
66751;SDS011;53663;42.676;23.238;2024-03-02T00:36:02;24.55;;;14.05;;
66751;SDS011;53663;42.676;23.238;2024-03-02T00:38:29;26.95;;;13.65;;
66751;SDS011;53663;42.676;23.238;2024-03-02T00:40:55;26.65;;;14.13;;
66751;SDS011;53663;42.676;23.238;2024-03-02T00:46:05;22.30;;;13.18;;
66751;SDS011;53663;42.676;23.238;2024-03-02T00:48:30;23.75;;;14.15;;
66751;SDS011;53663;42.676;23.238;2024-03-02T00:51:05;29.33;;;14.73;;
66751;SDS011;53663;42.676;23.238;2024-03-02T00:53:31;25.73;;;14.27;;
66751;SDS011;53663;42.676;23.238;2024-03-02T00:56:00;22.17;;;12.68;;
66751;SDS011;53663;42.676;23.238;2024-03-02T00:58:26;24.92;;;14.90;;
66751;SDS011;53663;42.676;23.238;2024-03-02T01:00:52;28.10;;;15.52;;
66751;SDS011;53663;42.676;23.238;2024-03-02T01:03:17;31.42;;;17.02;;
66751;SDS011;53663;42.676;23.238;2024-03-02T01:05:44;27.00;;;15.63;;
66751;SDS011;53663;42.676;23.238;2024-03-02T01:08:10;30.33;;;16.85;;
66751;SDS011;53663;42.676;23.238;2024-03-02T01:10:36;29.67;;;16.90;;
66751;SDS011;53663;42.676;23.238;2024-03-02T01:13:01;31.25;;;15.75;;
66751;SDS011;53663;42.676;23.238;2024-03-02T01:15:27;27.85;;;15.68;;
66751;SDS011;53663;42.676;23.238;2024-03-02T01:17:53;35.45;;;16.63;;
66751;SDS011;53663;42.676;23.238;2024-03-02T01:20:18;33.10;;;17.80;;
66751;SDS011;53663;42.676;23.238;2024-03-02T01:22:44;34.80;;;18.13;;
66751;SDS011;53663;42.676;23.238;2024-03-02T01:25:09;34.45;;;17.50;;
66751;SDS011;53663;42.676;23.238;2024-03-02T01:27:35;33.20;;;18.80;;
66751;SDS011;53663;42.676;23.238;2024-03-02T01:30:00;32.20;;;17.88;;
66751;SDS011;53663;42.676;23.238;2024-03-02T01:32:26;35.30;;;17.35;;
66751;SDS011;53663;42.676;23.238;2024-03-02T01:34:52;30.95;;;18.02;;
66751;SDS011;53663;42.676;23.238;2024-03-02T01:37:17;30.77;;;18.13;;
66751;SDS011;53663;42.676;23.238;2024-03-02T01:39:43;29.27;;;17.35;;
66751;SDS011;53663;42.676;23.238;2024-03-02T01:42:08;30.38;;;17.67;;
66751;SDS011;53663;42.676;23.238;2024-03-02T01:44:35;34.03;;;17.35;;
66751;SDS011;53663;42.676;23.238;2024-03-02T01:47:01;32.25;;;16.75;;
66751;SDS011;53663;42.676;23.238;2024-03-02T01:49:27;32.08;;;17.52;;
66751;SDS011;53663;42.676;23.238;2024-03-02T01:51:52;31.77;;;17.48;;
66751;SDS011;53663;42.676;23.238;2024-03-02T01:54:18;31.95;;;17.75;;
66751;SDS011;53663;42.676;23.238;2024-03-02T01:56:44;32.60;;;16.88;;
66751;SDS011;53663;42.676;23.238;2024-03-02T01:59:11;28.80;;;16.50;;
66751;SDS011;53663;42.676;23.238;2024-03-02T02:01:39;28.45;;;17.20;;
66751;SDS011;53663;42.676;23.238;2024-03-02T02:04:04;28.35;;;16.48;;
66751;SDS011;53663;42.676;23.238;2024-03-02T02:06:31;30.83;;;16.92;;
66751;SDS011;53663;42.676;23.238;2024-03-02T02:08:57;36.80;;;17.77;;
66751;SDS011;53663;42.676;23.238;2024-03-02T02:11:23;31.05;;;17.30;;
66751;SDS011;53663;42.676;23.238;2024-03-02T02:13:49;29.58;;;16.95;;
66751;SDS011;53663;42.676;23.238;2024-03-02T02:16:14;32.75;;;18.33;;
66751;SDS011;53663;42.676;23.238;2024-03-02T02:18:40;39.53;;;19.67;;
66751;SDS011;53663;42.676;23.238;2024-03-02T02:21:06;37.92;;;20.30;;
66751;SDS011;53663;42.676;23.238;2024-03-02T02:23:31;38.80;;;21.17;;
66751;SDS011;53663;42.676;23.238;2024-03-02T02:25:57;33.92;;;20.13;;
66751;SDS011;53663;42.676;23.238;2024-03-02T02:28:22;35.28;;;20.42;;
66751;SDS011;53663;42.676;23.238;2024-03-02T02:30:48;35.78;;;21.27;;
66751;SDS011;53663;42.676;23.238;2024-03-02T02:33:13;35.03;;;20.27;;
66751;SDS011;53663;42.676;23.238;2024-03-02T02:35:38;43.30;;;21.73;;
66751;SDS011;53663;42.676;23.238;2024-03-02T02:38:04;43.03;;;21.45;;
66751;SDS011;53663;42.676;23.238;2024-03-02T02:40:30;37.58;;;21.13;;
66751;SDS011;53663;42.676;23.238;2024-03-02T02:42:56;36.15;;;20.90;;
66751;SDS011;53663;42.676;23.238;2024-03-02T02:45:22;39.40;;;22.08;;
66751;SDS011;53663;42.676;23.238;2024-03-02T02:47:48;44.40;;;21.50;;
66751;SDS011;53663;42.676;23.238;2024-03-02T02:50:14;40.75;;;19.83;;
66751;SDS011;53663;42.676;23.238;2024-03-02T02:52:40;38.17;;;20.85;;
66751;SDS011;53663;42.676;23.238;2024-03-02T02:55:07;39.25;;;20.15;;
66751;SDS011;53663;42.676;23.238;2024-03-02T02:57:37;46.55;;;21.27;;
66751;SDS011;53663;42.676;23.238;2024-03-02T03:00:07;38.03;;;21.20;;
66751;SDS011;53663;42.676;23.238;2024-03-02T03:02:41;41.28;;;19.92;;
66751;SDS011;53663;42.676;23.238;2024-03-02T03:05:11;36.97;;;20.38;;
66751;SDS011;53663;42.676;23.238;2024-03-02T03:07:41;39.15;;;21.20;;
66751;SDS011;53663;42.676;23.238;2024-03-02T03:12:35;34.10;;;19.77;;
66751;SDS011;53663;42.676;23.238;2024-03-02T03:15:01;38.70;;;21.58;;
66751;SDS011;53663;42.676;23.238;2024-03-02T03:17:29;35.90;;;20.13;;
66751;SDS011;53663;42.676;23.238;2024-03-02T03:19:55;41.55;;;22.85;;
66751;SDS011;53663;42.676;23.238;2024-03-02T03:22:21;39.97;;;21.95;;
66751;SDS011;53663;42.676;23.238;2024-03-02T03:24:46;39.95;;;20.83;;
66751;SDS011;53663;42.676;23.238;2024-03-02T03:27:12;33.50;;;20.30;;
66751;SDS011;53663;42.676;23.238;2024-03-02T03:29:37;42.83;;;21.50;;
66751;SDS011;53663;42.676;23.238;2024-03-02T03:32:05;38.42;;;22.67;;
66751;SDS011;53663;42.676;23.238;2024-03-02T03:34:35;38.67;;;21.42;;
66751;SDS011;53663;42.676;23.238;2024-03-02T03:37:00;40.38;;;22.35;;
66751;SDS011;53663;42.676;23.238;2024-03-02T03:39:26;42.83;;;22.88;;
66751;SDS011;53663;42.676;23.238;2024-03-02T03:41:52;41.83;;;22.20;;
66751;SDS011;53663;42.676;23.238;2024-03-02T03:44:17;39.60;;;22.73;;
66751;SDS011;53663;42.676;23.238;2024-03-02T03:46:43;43.70;;;23.88;;
66751;SDS011;53663;42.676;23.238;2024-03-02T03:49:08;37.95;;;23.15;;
66751;SDS011;53663;42.676;23.238;2024-03-02T03:51:34;43.65;;;23.90;;
66751;SDS011;53663;42.676;23.238;2024-03-02T03:54:00;42.53;;;23.30;;
66751;SDS011;53663;42.676;23.238;2024-03-02T03:56:26;43.90;;;22.80;;
66751;SDS011;53663;42.676;23.238;2024-03-02T03:58:52;44.83;;;24.02;;
66751;SDS011;53663;42.676;23.238;2024-03-02T04:01:17;48.30;;;24.88;;
66751;SDS011;53663;42.676;23.238;2024-03-02T04:03:43;46.30;;;23.63;;
66751;SDS011;53663;42.676;23.238;2024-03-02T04:06:09;43.60;;;24.77;;
66751;SDS011;53663;42.676;23.238;2024-03-02T04:08:34;44.08;;;24.27;;
66751;SDS011;53663;42.676;23.238;2024-03-02T04:11:00;43.17;;;24.13;;
66751;SDS011;53663;42.676;23.238;2024-03-02T04:13:25;46.88;;;25.13;;
66751;SDS011;53663;42.676;23.238;2024-03-02T04:15:51;42.55;;;24.23;;
66751;SDS011;53663;42.676;23.238;2024-03-02T04:18:16;40.83;;;22.88;;
66751;SDS011;53663;42.676;23.238;2024-03-02T04:20:42;40.75;;;24.05;;
66751;SDS011;53663;42.676;23.238;2024-03-02T04:23:07;43.63;;;23.77;;
66751;SDS011;53663;42.676;23.238;2024-03-02T04:25:33;47.78;;;24.65;;
66751;SDS011;53663;42.676;23.238;2024-03-02T04:27:59;47.28;;;23.45;;
66751;SDS011;53663;42.676;23.238;2024-03-02T04:30:25;42.53;;;23.02;;
66751;SDS011;53663;42.676;23.238;2024-03-02T04:32:50;43.30;;;23.48;;
66751;SDS011;53663;42.676;23.238;2024-03-02T04:35:16;42.50;;;23.45;;
66751;SDS011;53663;42.676;23.238;2024-03-02T04:37:41;41.15;;;23.73;;
66751;SDS011;53663;42.676;23.238;2024-03-02T04:40:07;46.45;;;24.15;;
66751;SDS011;53663;42.676;23.238;2024-03-02T04:42:34;38.22;;;22.73;;
66751;SDS011;53663;42.676;23.238;2024-03-02T04:45:00;44.85;;;23.20;;
66751;SDS011;53663;42.676;23.238;2024-03-02T04:47:26;41.60;;;23.20;;
66751;SDS011;53663;42.676;23.238;2024-03-02T04:49:51;43.20;;;23.70;;
66751;SDS011;53663;42.676;23.238;2024-03-02T04:52:17;36.03;;;22.13;;
66751;SDS011;53663;42.676;23.238;2024-03-02T04:54:42;37.05;;;21.70;;
66751;SDS011;53663;42.676;23.238;2024-03-02T04:57:27;36.03;;;20.75;;
66751;SDS011;53663;42.676;23.238;2024-03-02T04:59:52;38.58;;;22.00;;
66751;SDS011;53663;42.676;23.238;2024-03-02T05:02:18;37.17;;;21.77;;
66751;SDS011;53663;42.676;23.238;2024-03-02T05:04:43;35.38;;;20.92;;
66751;SDS011;53663;42.676;23.238;2024-03-02T05:07:09;43.65;;;20.33;;
66751;SDS011;53663;42.676;23.238;2024-03-02T05:09:35;34.08;;;20.63;;
66751;SDS011;53663;42.676;23.238;2024-03-02T05:12:00;32.92;;;19.85;;
66751;SDS011;53663;42.676;23.238;2024-03-02T05:14:45;34.40;;;19.60;;
66751;SDS011;53663;42.676;23.238;2024-03-02T05:17:11;34.40;;;20.35;;
66751;SDS011;53663;42.676;23.238;2024-03-02T05:19:36;33.35;;;18.83;;
66751;SDS011;53663;42.676;23.238;2024-03-02T05:22:03;34.47;;;20.38;;
66751;SDS011;53663;42.676;23.238;2024-03-02T05:24:29;29.75;;;19.15;;
66751;SDS011;53663;42.676;23.238;2024-03-02T05:26:54;34.25;;;20.02;;
66751;SDS011;53663;42.676;23.238;2024-03-02T05:29:20;32.40;;;19.63;;
66751;SDS011;53663;42.676;23.238;2024-03-02T05:31:46;31.90;;;19.60;;
66751;SDS011;53663;42.676;23.238;2024-03-02T05:34:11;36.38;;;21.55;;
66751;SDS011;53663;42.676;23.238;2024-03-02T05:36:37;38.55;;;21.63;;
66751;SDS011;53663;42.676;23.238;2024-03-02T05:39:04;36.40;;;22.17;;
66751;SDS011;53663;42.676;23.238;2024-03-02T05:41:32;41.85;;;23.10;;
66751;SDS011;53663;42.676;23.238;2024-03-02T05:43:58;39.63;;;22.33;;
66751;SDS011;53663;42.676;23.238;2024-03-02T05:46:23;44.65;;;23.33;;
66751;SDS011;53663;42.676;23.238;2024-03-02T05:48:49;46.35;;;23.55;;
66751;SDS011;53663;42.676;23.238;2024-03-02T05:51:14;40.40;;;23.52;;
66751;SDS011;53663;42.676;23.238;2024-03-02T05:53:40;38.38;;;23.27;;
66751;SDS011;53663;42.676;23.238;2024-03-02T05:56:05;38.97;;;22.75;;
66751;SDS011;53663;42.676;23.238;2024-03-02T05:58:31;42.30;;;23.33;;
66751;SDS011;53663;42.676;23.238;2024-03-02T06:01:15;38.47;;;22.02;;
66751;SDS011;53663;42.676;23.238;2024-03-02T06:03:43;38.05;;;22.70;;
66751;SDS011;53663;42.676;23.238;2024-03-02T06:06:08;47.45;;;24.90;;
66751;SDS011;53663;42.676;23.238;2024-03-02T06:08:34;41.92;;;23.80;;
66751;SDS011;53663;42.676;23.238;2024-03-02T06:11:00;41.72;;;23.60;;
66751;SDS011;53663;42.676;23.238;2024-03-02T06:13:25;34.38;;;21.25;;
66751;SDS011;53663;42.676;23.238;2024-03-02T06:15:51;36.03;;;21.85;;
66751;SDS011;53663;42.676;23.238;2024-03-02T06:18:17;37.15;;;22.50;;
66751;SDS011;53663;42.676;23.238;2024-03-02T06:20:43;38.88;;;22.35;;
66751;SDS011;53663;42.676;23.238;2024-03-02T06:23:08;44.42;;;22.83;;
66751;SDS011;53663;42.676;23.238;2024-03-02T06:25:34;41.60;;;23.48;;
66751;SDS011;53663;42.676;23.238;2024-03-02T06:27:59;41.22;;;24.08;;
66751;SDS011;53663;42.676;23.238;2024-03-02T06:30:25;49.08;;;25.98;;
66751;SDS011;53663;42.676;23.238;2024-03-02T06:32:51;40.33;;;24.15;;
66751;SDS011;53663;42.676;23.238;2024-03-02T06:35:16;42.53;;;24.35;;
66751;SDS011;53663;42.676;23.238;2024-03-02T06:37:42;44.17;;;25.40;;
66751;SDS011;53663;42.676;23.238;2024-03-02T06:40:08;49.15;;;26.42;;
66751;SDS011;53663;42.676;23.238;2024-03-02T06:42:34;46.95;;;27.63;;
66751;SDS011;53663;42.676;23.238;2024-03-02T06:45:00;43.67;;;25.67;;
66751;SDS011;53663;42.676;23.238;2024-03-02T06:47:26;50.00;;;26.42;;
66751;SDS011;53663;42.676;23.238;2024-03-02T06:49:52;53.40;;;27.33;;
66751;SDS011;53663;42.676;23.238;2024-03-02T06:52:18;55.42;;;27.25;;
66751;SDS011;53663;42.676;23.238;2024-03-02T06:54:45;46.88;;;26.48;;
66751;SDS011;53663;42.676;23.238;2024-03-02T06:57:11;50.08;;;25.60;;
66751;SDS011;53663;42.676;23.238;2024-03-02T06:59:36;50.03;;;27.05;;
66751;SDS011;53663;42.676;23.238;2024-03-02T07:02:02;53.67;;;28.08;;
66751;SDS011;53663;42.676;23.238;2024-03-02T07:04:27;52.88;;;28.23;;
66751;SDS011;53663;42.676;23.238;2024-03-02T07:06:53;48.42;;;25.83;;
66751;SDS011;53663;42.676;23.238;2024-03-02T07:09:18;46.28;;;26.95;;
66751;SDS011;53663;42.676;23.238;2024-03-02T07:11:47;48.47;;;26.35;;
66751;SDS011;53663;42.676;23.238;2024-03-02T07:14:13;47.05;;;26.80;;
66751;SDS011;53663;42.676;23.238;2024-03-02T07:16:38;43.05;;;24.63;;
66751;SDS011;53663;42.676;23.238;2024-03-02T07:19:05;52.35;;;31.80;;
66751;SDS011;53663;42.676;23.238;2024-03-02T07:21:31;46.40;;;24.73;;
66751;SDS011;53663;42.676;23.238;2024-03-02T07:23:58;40.08;;;23.27;;
66751;SDS011;53663;42.676;23.238;2024-03-02T07:26:24;41.85;;;23.33;;
66751;SDS011;53663;42.676;23.238;2024-03-02T07:28:50;40.55;;;23.15;;
66751;SDS011;53663;42.676;23.238;2024-03-02T07:31:16;44.10;;;23.02;;
66751;SDS011;53663;42.676;23.238;2024-03-02T07:33:45;41.22;;;22.70;;
66751;SDS011;53663;42.676;23.238;2024-03-02T07:36:13;37.83;;;20.25;;
66751;SDS011;53663;42.676;23.238;2024-03-02T07:38:39;32.42;;;18.73;;
66751;SDS011;53663;42.676;23.238;2024-03-02T07:41:05;34.22;;;18.67;;
66751;SDS011;53663;42.676;23.238;2024-03-02T07:43:32;32.08;;;16.70;;
66751;SDS011;53663;42.676;23.238;2024-03-02T07:46:01;33.63;;;17.10;;
66751;SDS011;53663;42.676;23.238;2024-03-02T07:48:28;30.15;;;16.33;;
66751;SDS011;53663;42.676;23.238;2024-03-02T07:50:53;35.70;;;15.88;;
66751;SDS011;53663;42.676;23.238;2024-03-02T07:53:19;36.25;;;17.83;;
66751;SDS011;53663;42.676;23.238;2024-03-02T07:55:44;43.67;;;22.42;;
66751;SDS011;53663;42.676;23.238;2024-03-02T07:58:10;48.90;;;22.08;;
66751;SDS011;53663;42.676;23.238;2024-03-02T08:00:38;39.80;;;20.23;;
66751;SDS011;53663;42.676;23.238;2024-03-02T08:03:04;37.53;;;19.60;;
66751;SDS011;53663;42.676;23.238;2024-03-02T08:05:30;42.47;;;20.52;;
66751;SDS011;53663;42.676;23.238;2024-03-02T08:07:55;40.97;;;21.05;;
66751;SDS011;53663;42.676;23.238;2024-03-02T08:10:21;44.67;;;22.10;;
66751;SDS011;53663;42.676;23.238;2024-03-02T08:12:46;38.10;;;20.35;;
66751;SDS011;53663;42.676;23.238;2024-03-02T08:15:12;49.75;;;24.20;;
66751;SDS011;53663;42.676;23.238;2024-03-02T08:17:38;43.10;;;24.42;;
66751;SDS011;53663;42.676;23.238;2024-03-02T08:20:10;46.05;;;24.40;;
66751;SDS011;53663;42.676;23.238;2024-03-02T08:22:38;48.70;;;22.02;;
66751;SDS011;53663;42.676;23.238;2024-03-02T08:25:03;45.70;;;21.40;;
66751;SDS011;53663;42.676;23.238;2024-03-02T08:27:29;43.83;;;21.52;;
66751;SDS011;53663;42.676;23.238;2024-03-02T08:29:57;36.45;;;20.15;;
66751;SDS011;53663;42.676;23.238;2024-03-02T08:32:22;40.60;;;21.30;;
66751;SDS011;53663;42.676;23.238;2024-03-02T08:34:48;43.03;;;21.27;;
66751;SDS011;53663;42.676;23.238;2024-03-02T08:37:13;43.80;;;21.17;;
66751;SDS011;53663;42.676;23.238;2024-03-02T08:39:39;40.03;;;20.50;;
66751;SDS011;53663;42.676;23.238;2024-03-02T08:42:04;43.03;;;22.33;;
66751;SDS011;53663;42.676;23.238;2024-03-02T08:44:30;39.15;;;20.77;;
66751;SDS011;53663;42.676;23.238;2024-03-02T08:46:56;52.05;;;23.02;;
66751;SDS011;53663;42.676;23.238;2024-03-02T08:49:21;44.63;;;23.13;;
66751;SDS011;53663;42.676;23.238;2024-03-02T08:51:47;40.65;;;22.13;;
66751;SDS011;53663;42.676;23.238;2024-03-02T08:54:22;43.90;;;23.13;;
66751;SDS011;53663;42.676;23.238;2024-03-02T08:56:48;39.08;;;20.88;;
66751;SDS011;53663;42.676;23.238;2024-03-02T08:59:15;44.58;;;22.20;;
66751;SDS011;53663;42.676;23.238;2024-03-02T09:01:41;43.40;;;21.85;;
66751;SDS011;53663;42.676;23.238;2024-03-02T09:04:07;36.70;;;20.10;;
66751;SDS011;53663;42.676;23.238;2024-03-02T09:06:35;40.60;;;20.48;;
66751;SDS011;53663;42.676;23.238;2024-03-02T09:09:01;41.50;;;19.52;;
66751;SDS011;53663;42.676;23.238;2024-03-02T09:11:26;39.53;;;20.27;;
66751;SDS011;53663;42.676;23.238;2024-03-02T09:13:52;40.45;;;20.95;;
66751;SDS011;53663;42.676;23.238;2024-03-02T09:16:18;40.65;;;20.17;;
66751;SDS011;53663;42.676;23.238;2024-03-02T09:18:44;36.30;;;18.83;;
66751;SDS011;53663;42.676;23.238;2024-03-02T09:21:10;36.03;;;18.83;;
66751;SDS011;53663;42.676;23.238;2024-03-02T09:23:35;36.80;;;19.23;;
66751;SDS011;53663;42.676;23.238;2024-03-02T09:26:01;34.40;;;18.33;;
66751;SDS011;53663;42.676;23.238;2024-03-02T09:28:26;32.85;;;17.45;;
66751;SDS011;53663;42.676;23.238;2024-03-02T09:30:52;31.02;;;16.30;;
66751;SDS011;53663;42.676;23.238;2024-03-02T09:33:18;31.33;;;16.13;;
66751;SDS011;53663;42.676;23.238;2024-03-02T09:35:43;30.55;;;16.63;;
66751;SDS011;53663;42.676;23.238;2024-03-02T09:38:09;28.52;;;16.65;;
66751;SDS011;53663;42.676;23.238;2024-03-02T09:40:34;30.05;;;16.33;;
66751;SDS011;53663;42.676;23.238;2024-03-02T09:43:00;31.45;;;16.55;;
66751;SDS011;53663;42.676;23.238;2024-03-02T09:45:26;27.52;;;16.38;;
66751;SDS011;53663;42.676;23.238;2024-03-02T09:47:52;33.03;;;16.33;;
66751;SDS011;53663;42.676;23.238;2024-03-02T09:50:18;30.65;;;16.63;;
66751;SDS011;53663;42.676;23.238;2024-03-02T09:52:43;29.92;;;15.25;;
66751;SDS011;53663;42.676;23.238;2024-03-02T09:55:12;26.08;;;15.13;;
66751;SDS011;53663;42.676;23.238;2024-03-02T09:57:39;33.92;;;16.15;;
66751;SDS011;53663;42.676;23.238;2024-03-02T10:00:07;27.30;;;16.30;;
66751;SDS011;53663;42.676;23.238;2024-03-02T10:02:33;28.92;;;16.50;;
66751;SDS011;53663;42.676;23.238;2024-03-02T10:04:59;31.92;;;17.55;;
66751;SDS011;53663;42.676;23.238;2024-03-02T10:07:24;30.35;;;17.20;;
66751;SDS011;53663;42.676;23.238;2024-03-02T10:09:50;36.55;;;19.67;;
66751;SDS011;53663;42.676;23.238;2024-03-02T10:12:17;37.33;;;19.08;;
66751;SDS011;53663;42.676;23.238;2024-03-02T10:14:43;37.15;;;18.35;;
66751;SDS011;53663;42.676;23.238;2024-03-02T10:17:10;35.30;;;18.02;;
66751;SDS011;53663;42.676;23.238;2024-03-02T10:19:37;36.15;;;20.00;;
66751;SDS011;53663;42.676;23.238;2024-03-02T10:22:07;33.38;;;18.30;;
66751;SDS011;53663;42.676;23.238;2024-03-02T10:24:38;33.17;;;18.80;;
66751;SDS011;53663;42.676;23.238;2024-03-02T10:27:38;34.00;;;18.90;;
66751;SDS011;53663;42.676;23.238;2024-03-02T10:29:59;37.40;;;20.85;;
66751;SDS011;53663;42.676;23.238;2024-03-02T10:32:27;41.13;;;21.77;;
66751;SDS011;53663;42.676;23.238;2024-03-02T10:34:53;42.70;;;21.60;;
66751;SDS011;53663;42.676;23.238;2024-03-02T10:37:19;49.97;;;27.73;;
66751;SDS011;53663;42.676;23.238;2024-03-02T10:39:46;36.53;;;20.35;;
66751;SDS011;53663;42.676;23.238;2024-03-02T10:42:12;35.58;;;19.48;;
66751;SDS011;53663;42.676;23.238;2024-03-02T10:44:39;44.35;;;24.17;;
66751;SDS011;53663;42.676;23.238;2024-03-02T10:47:08;32.80;;;17.35;;
66751;SDS011;53663;42.676;23.238;2024-03-02T10:49:34;29.52;;;16.30;;
66751;SDS011;53663;42.676;23.238;2024-03-02T10:51:59;29.80;;;17.67;;
66751;SDS011;53663;42.676;23.238;2024-03-02T10:54:25;33.05;;;18.00;;
66751;SDS011;53663;42.676;23.238;2024-03-02T10:56:54;37.58;;;18.23;;
66751;SDS011;53663;42.676;23.238;2024-03-02T10:59:31;34.53;;;19.45;;
66751;SDS011;53663;42.676;23.238;2024-03-02T11:02:00;32.63;;;18.17;;
66751;SDS011;53663;42.676;23.238;2024-03-02T11:04:27;34.13;;;18.35;;
66751;SDS011;53663;42.676;23.238;2024-03-02T11:07:00;33.60;;;18.20;;
66751;SDS011;53663;42.676;23.238;2024-03-02T11:09:33;33.53;;;18.67;;
66751;SDS011;53663;42.676;23.238;2024-03-02T11:12:06;30.27;;;17.80;;
66751;SDS011;53663;42.676;23.238;2024-03-02T11:14:37;35.53;;;18.77;;
66751;SDS011;53663;42.676;23.238;2024-03-02T11:17:08;34.72;;;18.67;;
66751;SDS011;53663;42.676;23.238;2024-03-02T11:19:35;42.08;;;21.67;;
66751;SDS011;53663;42.676;23.238;2024-03-02T11:22:03;55.85;;;30.17;;
66751;SDS011;53663;42.676;23.238;2024-03-02T11:24:30;39.63;;;21.77;;
66751;SDS011;53663;42.676;23.238;2024-03-02T11:26:58;33.63;;;20.50;;
66751;SDS011;53663;42.676;23.238;2024-03-02T11:32:15;41.28;;;23.58;;
66751;SDS011;53663;42.676;23.238;2024-03-02T11:34:49;40.22;;;20.70;;
66751;SDS011;53663;42.676;23.238;2024-03-02T11:37:16;36.45;;;20.83;;
66751;SDS011;53663;42.676;23.238;2024-03-02T11:39:47;43.55;;;21.67;;
66751;SDS011;53663;42.676;23.238;2024-03-02T11:42:15;38.70;;;21.10;;
66751;SDS011;53663;42.676;23.238;2024-03-02T11:44:47;41.63;;;22.65;;
66751;SDS011;53663;42.676;23.238;2024-03-02T11:47:16;46.95;;;22.75;;
66751;SDS011;53663;42.676;23.238;2024-03-02T11:49:49;39.97;;;22.58;;
66751;SDS011;53663;42.676;23.238;2024-03-02T11:52:19;45.63;;;24.30;;
66751;SDS011;53663;42.676;23.238;2024-03-02T11:54:47;46.40;;;24.92;;
66751;SDS011;53663;42.676;23.238;2024-03-02T11:57:23;50.33;;;27.65;;
66751;SDS011;53663;42.676;23.238;2024-03-02T11:59:48;48.70;;;26.98;;
66751;SDS011;53663;42.676;23.238;2024-03-02T12:02:15;53.63;;;27.25;;
66751;SDS011;53663;42.676;23.238;2024-03-02T12:04:43;46.05;;;22.80;;
66751;SDS011;53663;42.676;23.238;2024-03-02T12:07:10;44.47;;;23.48;;
66751;SDS011;53663;42.676;23.238;2024-03-02T12:09:36;45.67;;;23.33;;
66751;SDS011;53663;42.676;23.238;2024-03-02T12:14:29;51.70;;;24.35;;
66751;SDS011;53663;42.676;23.238;2024-03-02T12:16:58;41.17;;;22.70;;
66751;SDS011;53663;42.676;23.238;2024-03-02T12:19:25;43.70;;;22.77;;
66751;SDS011;53663;42.676;23.238;2024-03-02T12:21:52;42.72;;;24.20;;
66751;SDS011;53663;42.676;23.238;2024-03-02T12:24:20;41.38;;;24.55;;
66751;SDS011;53663;42.676;23.238;2024-03-02T12:26:47;45.20;;;24.83;;
66751;SDS011;53663;42.676;23.238;2024-03-02T12:29:13;44.42;;;25.33;;
66751;SDS011;53663;42.676;23.238;2024-03-02T12:31:40;40.78;;;24.15;;
66751;SDS011;53663;42.676;23.238;2024-03-02T12:34:07;41.72;;;22.88;;
66751;SDS011;53663;42.676;23.238;2024-03-02T12:36:39;33.95;;;20.95;;
66751;SDS011;53663;42.676;23.238;2024-03-02T12:39:10;36.42;;;21.02;;
66751;SDS011;53663;42.676;23.238;2024-03-02T12:41:36;37.13;;;21.42;;
66751;SDS011;53663;42.676;23.238;2024-03-02T12:44:05;49.88;;;32.13;;
66751;SDS011;53663;42.676;23.238;2024-03-02T12:46:31;54.88;;;30.80;;
66751;SDS011;53663;42.676;23.238;2024-03-02T12:48:58;48.78;;;27.65;;
66751;SDS011;53663;42.676;23.238;2024-03-02T12:51:24;43.47;;;24.98;;
66751;SDS011;53663;42.676;23.238;2024-03-02T12:53:54;44.92;;;22.15;;
66751;SDS011;53663;42.676;23.238;2024-03-02T12:56:20;38.25;;;21.25;;
66751;SDS011;53663;42.676;23.238;2024-03-02T12:58:46;35.88;;;20.17;;
66751;SDS011;53663;42.676;23.238;2024-03-02T13:01:14;41.22;;;23.15;;
66751;SDS011;53663;42.676;23.238;2024-03-02T13:03:43;42.55;;;24.92;;
66751;SDS011;53663;42.676;23.238;2024-03-02T13:06:09;42.05;;;23.67;;
66751;SDS011;53663;42.676;23.238;2024-03-02T13:08:35;40.42;;;23.40;;
66751;SDS011;53663;42.676;23.238;2024-03-02T13:11:00;36.45;;;20.15;;
66751;SDS011;53663;42.676;23.238;2024-03-02T13:13:26;36.00;;;20.85;;
66751;SDS011;53663;42.676;23.238;2024-03-02T13:15:55;38.60;;;21.30;;
66751;SDS011;53663;42.676;23.238;2024-03-02T13:18:21;34.42;;;18.88;;
66751;SDS011;53663;42.676;23.238;2024-03-02T13:20:47;38.17;;;22.08;;
66751;SDS011;53663;42.676;23.238;2024-03-02T13:23:13;39.58;;;22.83;;
66751;SDS011;53663;42.676;23.238;2024-03-02T13:25:39;38.17;;;22.13;;
66751;SDS011;53663;42.676;23.238;2024-03-02T13:28:05;37.13;;;22.75;;
66751;SDS011;53663;42.676;23.238;2024-03-02T13:30:31;41.08;;;23.67;;
66751;SDS011;53663;42.676;23.238;2024-03-02T13:32:57;46.22;;;25.23;;
66751;SDS011;53663;42.676;23.238;2024-03-02T13:35:23;47.67;;;27.48;;
66751;SDS011;53663;42.676;23.238;2024-03-02T13:37:49;43.60;;;24.75;;
66751;SDS011;53663;42.676;23.238;2024-03-02T13:40:15;38.72;;;23.38;;
66751;SDS011;53663;42.676;23.238;2024-03-02T13:42:48;40.92;;;22.92;;
66751;SDS011;53663;42.676;23.238;2024-03-02T13:45:14;39.83;;;22.25;;
66751;SDS011;53663;42.676;23.238;2024-03-02T13:47:40;39.05;;;23.50;;
66751;SDS011;53663;42.676;23.238;2024-03-02T13:50:06;40.42;;;22.15;;
66751;SDS011;53663;42.676;23.238;2024-03-02T13:52:32;35.38;;;19.73;;
66751;SDS011;53663;42.676;23.238;2024-03-02T13:54:58;38.88;;;21.35;;
66751;SDS011;53663;42.676;23.238;2024-03-02T13:57:23;36.85;;;21.10;;
66751;SDS011;53663;42.676;23.238;2024-03-02T13:59:49;35.28;;;21.50;;
66751;SDS011;53663;42.676;23.238;2024-03-02T14:02:15;39.20;;;21.90;;
66751;SDS011;53663;42.676;23.238;2024-03-02T14:04:41;36.55;;;21.02;;
66751;SDS011;53663;42.676;23.238;2024-03-02T14:07:06;39.08;;;22.33;;
66751;SDS011;53663;42.676;23.238;2024-03-02T14:09:32;33.80;;;20.25;;
66751;SDS011;53663;42.676;23.238;2024-03-02T14:11:58;37.72;;;22.27;;
66751;SDS011;53663;42.676;23.238;2024-03-02T14:14:26;40.78;;;21.77;;
66751;SDS011;53663;42.676;23.238;2024-03-02T14:16:52;36.40;;;20.73;;
66751;SDS011;53663;42.676;23.238;2024-03-02T14:19:19;35.67;;;21.95;;
66751;SDS011;53663;42.676;23.238;2024-03-02T14:21:45;37.33;;;20.27;;
66751;SDS011;53663;42.676;23.238;2024-03-02T14:24:10;39.33;;;21.45;;
66751;SDS011;53663;42.676;23.238;2024-03-02T14:26:36;40.75;;;22.63;;